createdAt,value
2017-11-09T00:01:02.601Z,78.10
2017-11-09T00:03:30.198Z,74.63
2017-11-09T00:06:03.258Z,75.30
2017-11-09T00:08:30.867Z,82.17
2017-11-09T00:10:58.438Z,72.53
2017-11-09T00:13:26.916Z,78.80
2017-11-09T00:15:54.525Z,68.07
2017-11-09T00:18:22.128Z,81.73
2017-11-09T00:20:49.720Z,82.23
2017-11-09T00:23:17.338Z,78.63
2017-11-09T00:25:44.967Z,72.17
2017-11-09T00:28:12.539Z,72.50
2017-11-09T00:30:40.121Z,68.90
2017-11-09T00:33:07.691Z,72.97
2017-11-09T00:35:35.255Z,74.40
2017-11-09T00:38:02.831Z,77.83
2017-11-09T00:40:30.436Z,79.57
2017-11-09T00:42:58.014Z,70.60
2017-11-09T00:45:25.590Z,79.27
2017-11-09T00:47:53.154Z,66.33
2017-11-09T00:50:20.731Z,71.93
2017-11-09T00:52:48.337Z,82.00
2017-11-09T00:55:15.905Z,75.93
2017-11-09T00:57:43.483Z,67.83
2017-11-09T01:00:11.094Z,80.37
2017-11-09T01:02:38.667Z,82.90
2017-11-09T01:05:06.234Z,73.07
2017-11-09T01:07:33.806Z,75.67
2017-11-09T01:10:01.410Z,67.30
2017-11-09T01:12:28.985Z,84.80
2017-11-09T01:14:56.550Z,79.43
2017-11-09T01:17:24.165Z,70.77
2017-11-09T01:19:51.736Z,74.63
2017-11-09T01:22:19.308Z,84.50
2017-11-09T01:24:46.878Z,72.70
2017-11-09T01:27:14.454Z,57.30
2017-11-09T01:29:42.019Z,77.47
2017-11-09T01:32:09.586Z,63.57
2017-11-09T01:34:37.164Z,69.13
2017-11-09T01:37:04.771Z,69.30
2017-11-09T01:39:32.327Z,67.20
2017-11-09T01:41:59.894Z,69.03
2017-11-09T01:44:27.465Z,70.73
2017-11-09T01:46:55.042Z,74.90
2017-11-09T01:49:22.650Z,72.77
2017-11-09T01:51:50.271Z,67.23
2017-11-09T01:54:17.830Z,71.43
2017-11-09T01:56:45.398Z,75.63
2017-11-09T01:59:12.964Z,73.03
2017-11-09T02:01:40.652Z,66.40
2017-11-09T02:04:08.234Z,70.43
2017-11-09T02:06:35.880Z,74.53
2017-11-09T02:09:03.457Z,85.70
2017-11-09T02:11:31.031Z,81.03
2017-11-09T02:13:58.632Z,84.30
2017-11-09T02:16:26.208Z,78.37
2017-11-09T02:18:53.778Z,77.37
2017-11-09T02:21:21.347Z,83.50
2017-11-09T02:23:48.968Z,92.37
2017-11-09T02:26:16.578Z,75.57
2017-11-09T02:28:44.143Z,77.57
2017-11-09T02:31:11.706Z,81.07
2017-11-09T02:33:39.272Z,81.83
2017-11-09T02:36:06.834Z,84.17
2017-11-09T02:38:34.456Z,74.90
2017-11-09T02:41:02.024Z,92.53
2017-11-09T02:43:29.592Z,75.83
2017-11-09T02:45:57.168Z,82.03
2017-11-09T02:48:24.731Z,87.10
2017-11-09T02:50:52.329Z,87.93
2017-11-09T02:53:19.901Z,90.50
2017-11-09T02:55:48.196Z,88.33
2017-11-09T02:58:16.527Z,83.97
2017-11-09T03:00:44.875Z,94.97
2017-11-09T03:03:12.440Z,85.67
2017-11-09T03:05:40.934Z,101.20
2017-11-09T03:08:08.547Z,89.70
2017-11-09T03:10:36.114Z,86.33
2017-11-09T03:13:03.673Z,92.80
2017-11-09T03:15:31.235Z,84.87
2017-11-09T03:17:59.571Z,86.03
2017-11-09T03:20:27.166Z,74.70
2017-11-09T03:22:54.738Z,90.13
2017-11-09T03:25:23.200Z,84.73
2017-11-09T03:27:50.768Z,89.60
2017-11-09T03:30:19.307Z,76.00
2017-11-09T03:32:46.895Z,92.77
2017-11-09T03:35:15.268Z,94.97
2017-11-09T03:37:42.853Z,94.40
2017-11-09T03:40:10.420Z,89.60
2017-11-09T03:42:38.021Z,84.20
2017-11-09T03:45:05.590Z,86.00
2017-11-09T03:47:33.154Z,87.83
2017-11-09T03:50:01.423Z,92.37
2017-11-09T03:52:29.011Z,87.87
2017-11-09T03:54:56.574Z,88.07
2017-11-09T03:57:24.145Z,91.80
2017-11-09T03:59:51.758Z,84.20
2017-11-09T04:02:19.318Z,85.20
2017-11-09T04:04:46.885Z,86.03
2017-11-09T04:07:19.121Z,92.17
2017-11-09T04:09:47.616Z,78.67
2017-11-09T04:12:15.183Z,94.40
2017-11-09T04:14:42.787Z,100.87
2017-11-09T04:17:10.363Z,90.83
2017-11-09T04:19:37.929Z,80.53
2017-11-09T04:22:05.494Z,83.57
2017-11-09T04:24:33.059Z,97.70
2017-11-09T04:27:00.680Z,92.70
2017-11-09T04:29:28.257Z,105.93
2017-11-09T04:31:56.621Z,83.63
2017-11-09T04:34:24.188Z,92.37
2017-11-09T04:36:51.757Z,97.87
2017-11-09T04:39:19.329Z,88.23
2017-11-09T04:41:46.898Z,86.10
2017-11-09T04:44:15.392Z,92.07
2017-11-09T04:46:42.955Z,99.90
2017-11-09T04:49:11.510Z,88.73
2017-11-09T04:51:39.081Z,91.00
2017-11-09T04:54:06.657Z,94.53
2017-11-09T04:56:35.124Z,95.90
2017-11-09T04:59:03.615Z,98.70
2017-11-09T05:01:31.214Z,102.60
2017-11-09T05:03:58.788Z,104.43
2017-11-09T05:06:27.215Z,100.80
2017-11-09T05:08:54.801Z,91.73
2017-11-09T05:11:22.410Z,100.60
2017-11-09T05:13:50.923Z,89.43
2017-11-09T05:16:19.311Z,93.23
2017-11-09T05:18:47.758Z,96.83
2017-11-09T05:21:16.135Z,108.40
2017-11-09T05:23:43.706Z,95.10
2017-11-09T05:26:12.203Z,91.70
2017-11-09T05:28:39.781Z,85.63
2017-11-09T05:31:08.265Z,75.73
2017-11-09T05:33:35.910Z,97.77
2017-11-09T05:36:04.327Z,91.60
2017-11-09T05:38:32.671Z,91.53
2017-11-09T05:41:01.007Z,89.83
2017-11-09T05:43:28.571Z,95.80
2017-11-09T05:45:56.159Z,100.87
2017-11-09T05:48:23.778Z,104.77
2017-11-09T05:50:51.397Z,112.97
2017-11-09T05:53:18.971Z,118.20
2017-11-09T05:55:46.582Z,114.37
2017-11-09T05:58:14.151Z,89.67
2017-11-09T06:00:41.719Z,99.30
2017-11-09T06:03:09.295Z,102.57
2017-11-09T06:05:36.871Z,97.80
2017-11-09T06:08:04.443Z,92.60
2017-11-09T06:10:32.013Z,100.50
2017-11-09T06:13:00.318Z,96.03
2017-11-09T06:15:27.900Z,102.60
2017-11-09T06:17:56.359Z,95.77
2017-11-09T06:20:24.791Z,101.13
2017-11-09T06:22:53.163Z,91.67
2017-11-09T06:25:20.727Z,85.27
2017-11-09T06:27:49.002Z,95.83
2017-11-09T06:30:17.261Z,86.50
2017-11-09T06:32:44.840Z,89.97
2017-11-09T06:35:12.441Z,98.50
2017-11-09T06:37:40.108Z,103.30
2017-11-09T06:40:08.468Z,90.33
2017-11-09T06:42:36.043Z,94.27
2017-11-09T06:45:03.706Z,105.87
2017-11-09T06:47:31.267Z,94.43
2017-11-09T06:49:59.366Z,94.67
2017-11-09T06:52:26.967Z,97.83
2017-11-09T06:54:55.455Z,96.53
2017-11-09T06:57:23.065Z,101.73
2017-11-09T06:59:50.643Z,96.00
2017-11-09T07:02:19.111Z,97.23
2017-11-09T07:04:46.676Z,92.10
2017-11-09T07:07:14.247Z,99.90
2017-11-09T07:09:41.834Z,104.97
2017-11-09T07:12:09.396Z,96.47
2017-11-09T07:14:37.062Z,104.47
2017-11-09T07:17:04.634Z,104.53
2017-11-09T07:19:32.202Z,110.00
2017-11-09T07:21:59.778Z,93.50
2017-11-09T07:24:27.358Z,89.47
2017-11-09T07:26:55.635Z,102.60
2017-11-09T07:29:23.203Z,103.07
2017-11-09T07:31:50.810Z,94.17
2017-11-09T07:34:18.375Z,87.73
2017-11-09T07:36:46.737Z,91.80
2017-11-09T07:39:14.310Z,96.53
2017-11-09T07:41:42.794Z,88.07
2017-11-09T07:44:10.367Z,100.40
2017-11-09T07:46:37.935Z,94.03
2017-11-09T07:51:27.555Z,83.87
2017-11-09T07:53:55.124Z,87.77
2017-11-09T07:56:22.696Z,88.63
2017-11-09T07:58:50.278Z,84.37
2017-11-09T08:01:17.844Z,94.40
2017-11-09T08:03:45.459Z,76.50
2017-11-09T08:06:13.027Z,75.63
2017-11-09T08:08:40.594Z,79.07
2017-11-09T08:11:08.163Z,83.33
2017-11-09T08:13:35.729Z,80.27
2017-11-09T08:16:03.340Z,75.40
2017-11-09T08:18:31.278Z,80.60
2017-11-09T08:20:58.879Z,76.70
2017-11-09T08:23:26.453Z,77.63
2017-11-09T08:25:55.970Z,82.83
2017-11-09T08:28:27.367Z,79.87
2017-11-09T08:30:56.178Z,77.97
2017-11-09T08:33:24.934Z,79.77
2017-11-09T08:35:53.431Z,85.37
2017-11-09T08:38:21.040Z,85.33
2017-11-09T08:40:48.614Z,82.67
2017-11-09T08:43:16.947Z,78.87
2017-11-09T08:45:44.514Z,77.40
2017-11-09T08:48:12.888Z,86.77
2017-11-09T08:50:40.454Z,76.87
2017-11-09T08:53:08.835Z,84.13
2017-11-09T08:55:37.183Z,85.70
2017-11-09T08:58:04.759Z,91.40
2017-11-09T09:00:32.335Z,73.70
2017-11-09T09:03:00.701Z,88.23
2017-11-09T09:05:28.311Z,92.80
2017-11-09T09:07:55.884Z,86.77
2017-11-09T09:10:24.367Z,79.67
2017-11-09T09:12:52.712Z,89.83
2017-11-09T09:15:20.311Z,77.07
2017-11-09T09:17:48.734Z,76.07
2017-11-09T09:20:16.439Z,83.43
2017-11-09T09:23:02.619Z,81.90
2017-11-09T09:25:36.542Z,81.03
2017-11-09T09:28:04.927Z,70.97
2017-11-09T09:30:33.281Z,81.33
2017-11-09T09:33:04.702Z,77.97
2017-11-09T09:35:32.994Z,85.07
2017-11-09T09:38:01.755Z,73.20
2017-11-09T09:40:30.498Z,77.50
2017-11-09T09:42:58.997Z,77.77
2017-11-09T09:45:26.566Z,85.93
2017-11-09T09:47:54.132Z,83.43
2017-11-09T09:50:21.730Z,76.10
2017-11-09T09:52:50.213Z,76.63
2017-11-09T09:55:18.516Z,83.23
2017-11-09T09:57:47.006Z,70.37
2017-11-09T10:00:14.627Z,71.60
2017-11-09T10:02:42.883Z,69.33
2017-11-09T10:05:11.254Z,65.47
2017-11-09T10:07:38.833Z,62.03
2017-11-09T10:10:07.191Z,54.77
2017-11-09T10:12:34.798Z,66.33
2017-11-09T10:15:03.011Z,64.50
2017-11-09T10:17:31.492Z,67.10
2017-11-09T10:19:59.891Z,86.10
2017-11-09T10:22:27.464Z,64.07
2017-11-09T10:24:55.810Z,67.63
2017-11-09T10:27:23.380Z,64.97
2017-11-09T10:29:51.885Z,73.87
2017-11-09T10:32:19.449Z,64.63
2017-11-09T10:34:48.001Z,61.40
2017-11-09T10:37:15.616Z,69.97
2017-11-09T10:39:43.191Z,67.97
2017-11-09T10:42:10.807Z,70.60
2017-11-09T10:44:39.076Z,67.77
2017-11-09T10:47:07.463Z,77.63
2017-11-09T10:49:35.843Z,76.40
2017-11-09T10:52:04.187Z,80.73
2017-11-09T10:54:32.536Z,80.70
2017-11-09T10:57:00.160Z,82.30
2017-11-09T11:02:08.605Z,84.63
2017-11-09T11:04:36.971Z,78.17
2017-11-09T11:07:05.247Z,68.30
2017-11-09T11:09:33.594Z,85.63
2017-11-09T11:12:01.991Z,74.53
2017-11-09T11:14:30.718Z,88.27
2017-11-09T11:16:58.293Z,76.90
2017-11-09T11:19:25.860Z,97.27
2017-11-09T11:21:53.463Z,89.40
2017-11-09T11:24:21.033Z,86.23
2017-11-09T11:26:48.600Z,82.43
2017-11-09T11:29:16.165Z,84.87
2017-11-09T11:31:43.748Z,97.63
2017-11-09T11:34:11.363Z,91.33
2017-11-09T11:36:38.931Z,95.40
2017-11-09T11:39:06.503Z,102.43
2017-11-09T11:41:34.081Z,113.53
2017-11-09T11:44:01.652Z,90.40
2017-11-09T11:46:29.218Z,107.03
2017-11-09T11:48:56.790Z,105.30
2017-11-09T11:51:24.358Z,79.47
2017-11-09T11:53:52.658Z,88.77
2017-11-09T11:56:20.226Z,74.83
2017-11-09T11:58:48.706Z,84.67
2017-11-09T12:01:16.283Z,95.87
2017-11-09T12:03:46.679Z,95.23
2017-11-09T12:06:14.263Z,91.03
2017-11-09T12:08:41.835Z,88.57
2017-11-09T12:11:09.408Z,99.17
2017-11-09T12:13:38.005Z,102.97
2017-11-09T12:16:05.575Z,94.20
2017-11-09T12:18:33.142Z,80.50
2017-11-09T12:21:00.749Z,85.90
2017-11-09T12:23:29.229Z,72.60
2017-11-09T12:25:56.790Z,72.50
2017-11-09T12:28:26.166Z,75.33
2017-11-09T12:30:53.740Z,75.20
2017-11-09T12:33:21.308Z,61.40
2017-11-09T12:35:48.878Z,76.60
2017-11-09T12:38:16.438Z,64.97
2017-11-09T12:40:44.000Z,70.20
2017-11-09T12:43:11.583Z,82.90
2017-11-09T12:45:39.167Z,75.60
2017-11-09T12:48:06.735Z,69.43
2017-11-09T12:50:34.353Z,74.90
2017-11-09T12:53:01.919Z,78.90
2017-11-09T12:55:29.503Z,75.00
2017-11-09T12:57:57.935Z,78.87
2017-11-09T13:00:25.507Z,73.57
2017-11-09T13:02:53.108Z,74.20
2017-11-09T13:05:20.671Z,79.90
2017-11-09T13:07:49.099Z,93.27
2017-11-09T13:10:17.555Z,84.53
2017-11-09T13:12:45.119Z,85.17
2017-11-09T13:15:13.596Z,84.23
2017-11-09T13:17:41.946Z,80.23
2017-11-09T13:20:09.523Z,85.57
2017-11-09T13:22:37.102Z,88.27
2017-11-09T13:25:05.459Z,85.50
2017-11-09T13:27:33.042Z,84.27
2017-11-09T13:30:01.571Z,80.73
2017-11-09T13:32:29.142Z,72.40
2017-11-09T13:34:57.623Z,94.53
2017-11-09T13:37:25.187Z,85.17
2017-11-09T13:39:53.653Z,99.03
2017-11-09T13:42:22.212Z,102.57
2017-11-09T13:44:50.713Z,93.50
2017-11-09T13:47:18.289Z,108.97
2017-11-09T13:49:46.695Z,94.63
2017-11-09T13:52:14.262Z,111.47
2017-11-09T13:54:42.802Z,94.57
2017-11-09T13:57:11.158Z,122.13
2017-11-09T13:59:38.903Z,75.23
2017-11-09T14:02:07.258Z,99.13
2017-11-09T14:04:34.831Z,113.63
2017-11-09T14:07:03.346Z,99.37
2017-11-09T14:09:30.944Z,105.70
2017-11-09T14:11:59.366Z,92.90
2017-11-09T14:14:26.983Z,110.17
2017-11-09T14:16:55.295Z,100.43
2017-11-09T14:19:22.874Z,118.83
2017-11-09T14:21:51.347Z,103.43
2017-11-09T14:24:18.965Z,95.13
2017-11-09T14:26:46.532Z,100.73
2017-11-09T14:29:14.106Z,107.30
2017-11-09T14:31:42.477Z,109.80
2017-11-09T14:34:10.857Z,99.07
2017-11-09T14:36:39.386Z,89.23
2017-11-09T14:39:07.813Z,110.13
2017-11-09T14:41:36.170Z,109.57
2017-11-09T14:44:04.659Z,94.43
2017-11-09T14:46:34.964Z,113.17
2017-11-09T14:49:02.534Z,90.47
2017-11-09T14:51:30.107Z,105.17
2017-11-09T14:53:57.681Z,96.53
2017-11-09T14:56:25.255Z,105.33
2017-11-09T14:58:52.839Z,101.40
2017-11-09T15:01:20.411Z,115.63
2017-11-09T15:03:48.033Z,98.90
2017-11-09T15:06:15.609Z,109.60
2017-11-09T15:08:43.979Z,101.70
2017-11-09T15:11:11.562Z,100.03
2017-11-09T15:13:39.841Z,115.53
2017-11-09T15:16:07.419Z,102.30
2017-11-09T15:18:35.063Z,125.73
2017-11-09T15:23:29.154Z,120.63
2017-11-09T15:25:56.728Z,102.47
2017-11-09T15:28:24.328Z,107.80
2017-11-09T15:30:51.906Z,118.47
2017-11-09T15:33:19.481Z,115.77
2017-11-09T15:35:53.831Z,113.90
2017-11-09T15:38:22.359Z,100.10
2017-11-09T15:40:50.826Z,98.77
2017-11-09T15:43:18.452Z,100.97
2017-11-09T15:45:46.922Z,105.57
2017-11-09T15:48:15.202Z,107.67
2017-11-09T15:50:43.572Z,126.63
2017-11-09T15:53:11.140Z,95.27
2017-11-09T15:55:38.708Z,106.93
2017-11-09T15:58:06.275Z,111.73
2017-11-09T16:00:34.717Z,110.97
2017-11-09T16:03:02.288Z,99.30
2017-11-09T16:05:29.875Z,119.83
2017-11-09T16:08:12.986Z,106.80
2017-11-09T16:10:43.767Z,114.87
2017-11-09T16:13:11.395Z,111.33
2017-11-09T16:15:39.744Z,120.43
2017-11-09T16:18:07.339Z,106.90
2017-11-09T16:20:38.324Z,103.17
2017-11-09T16:23:06.686Z,98.57
2017-11-09T16:25:34.302Z,103.17
2017-11-09T16:28:04.760Z,109.77
2017-11-09T16:30:33.129Z,133.13
2017-11-09T16:33:01.516Z,110.10
2017-11-09T16:35:29.894Z,116.00
2017-11-09T16:37:57.504Z,118.00
2017-11-09T16:40:25.119Z,109.43
2017-11-09T16:42:52.690Z,114.30
2017-11-09T16:45:20.270Z,121.57
2017-11-09T16:47:47.843Z,118.77
2017-11-09T16:50:15.531Z,119.10
2017-11-09T16:52:45.445Z,129.73
2017-11-09T16:55:13.027Z,144.77
2017-11-09T16:57:42.436Z,137.77
2017-11-09T17:00:10.016Z,134.33
2017-11-09T17:02:38.314Z,148.98
2017-11-09T17:05:05.930Z,148.97
2017-11-09T17:07:34.115Z,146.80
2017-11-09T17:10:01.719Z,139.37
2017-11-09T17:12:30.066Z,126.90
2017-11-09T17:15:02.325Z,154.23
2017-11-09T17:17:30.675Z,154.93
2017-11-09T17:19:58.290Z,141.40
2017-11-09T17:22:26.757Z,165.73
2017-11-09T17:24:55.103Z,151.03
2017-11-09T17:27:22.682Z,152.87
2017-11-09T17:29:51.059Z,161.93
2017-11-09T17:32:19.470Z,131.10
2017-11-09T17:34:47.039Z,145.20
2017-11-09T17:37:15.315Z,152.23
2017-11-09T17:39:42.900Z,157.33
2017-11-09T17:42:16.211Z,156.23
2017-11-09T17:44:43.791Z,151.60
2017-11-09T17:47:11.363Z,152.80
2017-11-09T17:49:38.927Z,183.53
2017-11-09T17:52:09.482Z,146.53
2017-11-09T17:54:37.060Z,181.53
2017-11-09T17:57:04.635Z,173.67
2017-11-09T18:02:29.194Z,155.90
2017-11-09T18:04:56.813Z,152.90
2017-11-09T18:07:24.428Z,142.80
2017-11-09T18:09:52.013Z,149.60
2017-11-09T18:12:20.420Z,181.13
2017-11-09T18:14:48.935Z,156.63
2017-11-09T18:17:16.685Z,149.43
2017-11-09T18:19:45.198Z,145.40
2017-11-09T18:22:12.761Z,143.37
2017-11-09T18:24:40.358Z,155.30
2017-11-09T18:27:08.737Z,152.17
2017-11-09T18:29:36.569Z,151.23
2017-11-09T18:32:04.185Z,154.87
2017-11-09T18:34:32.694Z,154.57
2017-11-09T18:37:01.008Z,175.07
2017-11-09T18:39:28.631Z,180.90
2017-11-09T18:41:56.938Z,157.10
2017-11-09T18:44:24.623Z,164.37
2017-11-09T18:46:52.244Z,172.50
2017-11-09T18:49:19.823Z,156.53
2017-11-09T18:51:47.400Z,157.87
2017-11-09T18:54:15.031Z,176.87
2017-11-09T18:56:42.722Z,175.00
2017-11-09T18:59:17.586Z,169.50
2017-11-09T19:01:45.154Z,176.60
2017-11-09T19:04:12.887Z,167.10
2017-11-09T19:06:40.457Z,174.03
2017-11-09T19:09:08.962Z,170.20
2017-11-09T19:11:36.539Z,166.43
2017-11-09T19:14:04.934Z,180.90
2017-11-09T19:16:33.509Z,160.27
2017-11-09T19:19:01.907Z,165.43
2017-11-09T19:21:30.304Z,186.77
2017-11-09T19:23:57.902Z,146.20
2017-11-09T19:26:25.736Z,181.13
2017-11-09T19:28:54.222Z,163.47
2017-11-09T19:31:22.716Z,159.33
2017-11-09T19:33:51.142Z,169.87
2017-11-09T19:36:19.571Z,162.67
2017-11-09T19:38:48.172Z,171.17
2017-11-09T19:41:15.872Z,158.37
2017-11-09T19:43:43.471Z,146.77
2017-11-09T19:46:11.056Z,167.40
2017-11-09T19:48:38.644Z,179.03
2017-11-09T19:51:06.269Z,160.67
2017-11-09T19:53:34.899Z,141.03
2017-11-09T19:56:03.404Z,165.00
2017-11-09T19:58:32.857Z,166.43
2017-11-09T20:01:00.563Z,160.47
2017-11-09T20:03:28.151Z,168.07
2017-11-09T20:05:56.664Z,160.27
2017-11-09T20:08:25.051Z,156.23
2017-11-09T20:10:54.077Z,155.37
2017-11-09T20:13:21.656Z,144.20
2017-11-09T20:15:49.341Z,145.60
2017-11-09T20:18:17.838Z,167.53
2017-11-09T20:20:45.748Z,140.93
2017-11-09T20:23:13.317Z,151.73
2017-11-09T20:25:40.924Z,149.00
2017-11-09T20:28:08.507Z,148.27
2017-11-09T20:30:36.089Z,147.30
2017-11-09T20:33:04.594Z,149.50
2017-11-09T20:35:32.164Z,147.80
2017-11-09T20:38:00.651Z,136.17
2017-11-09T20:40:28.504Z,132.63
2017-11-09T20:42:56.082Z,152.10
2017-11-09T20:45:23.663Z,156.20
2017-11-09T20:47:52.141Z,131.10
2017-11-09T20:50:21.495Z,149.27
2017-11-09T20:52:50.079Z,146.80
2017-11-09T20:55:17.774Z,130.00
2017-11-09T20:57:45.423Z,134.93
2017-11-09T21:00:13.120Z,152.10
2017-11-09T21:02:41.394Z,127.27
2017-11-09T21:05:09.119Z,132.70
2017-11-09T21:07:36.707Z,127.77
2017-11-09T21:10:04.287Z,118.50
2017-11-09T21:12:31.903Z,130.37
2017-11-09T21:15:00.409Z,123.93
2017-11-09T21:17:28.452Z,122.93
2017-11-09T21:19:56.127Z,139.67
2017-11-09T21:22:23.695Z,129.07
2017-11-09T21:24:51.315Z,111.80
2017-11-09T21:27:20.082Z,130.37
2017-11-09T21:29:49.783Z,108.40
2017-11-09T21:32:17.706Z,113.30
2017-11-09T21:34:45.772Z,101.70
2017-11-09T21:37:13.344Z,108.93
2017-11-09T21:39:41.858Z,111.83
2017-11-09T21:42:10.399Z,121.83
2017-11-09T21:44:38.584Z,113.57
2017-11-09T21:47:06.173Z,107.73
2017-11-09T21:49:33.738Z,112.53
2017-11-09T21:52:01.317Z,120.93
2017-11-09T21:54:29.243Z,122.80
2017-11-09T21:56:57.612Z,113.00
2017-11-09T21:59:25.989Z,102.57
2017-11-09T22:01:53.776Z,110.97
2017-11-09T22:04:21.363Z,136.50
2017-11-09T22:06:48.981Z,112.00
2017-11-09T22:09:16.555Z,103.03
2017-11-09T22:11:44.222Z,131.10
2017-11-09T22:14:11.807Z,109.23
2017-11-09T22:16:39.495Z,112.03
2017-11-09T22:19:07.169Z,96.53
2017-11-09T22:21:34.777Z,130.63
2017-11-09T22:24:03.288Z,107.20
2017-11-09T22:26:31.591Z,117.03
2017-11-09T22:28:59.194Z,97.50
2017-11-09T22:31:26.846Z,124.13
2017-11-09T22:33:54.770Z,117.27
2017-11-09T22:36:22.348Z,100.53
2017-11-09T22:38:49.953Z,110.60
2017-11-09T22:41:17.752Z,102.40
2017-11-09T22:43:45.373Z,108.90
2017-11-09T22:46:12.942Z,112.30
2017-11-09T22:48:40.551Z,106.53
2017-11-09T22:51:08.948Z,110.30
2017-11-09T22:53:37.240Z,106.50
2017-11-09T22:56:04.850Z,96.73
2017-11-09T22:58:32.421Z,107.87
2017-11-09T23:01:00.031Z,101.77
2017-11-09T23:03:28.296Z,100.50
2017-11-09T23:05:55.911Z,109.60
2017-11-09T23:08:24.387Z,107.20
2017-11-09T23:10:51.966Z,98.00
2017-11-09T23:13:19.578Z,106.70
2017-11-09T23:15:47.348Z,118.90
2017-11-09T23:18:14.916Z,89.40
2017-11-09T23:20:42.475Z,99.50
2017-11-09T23:23:10.082Z,113.60
2017-11-09T23:25:37.678Z,103.03
2017-11-09T23:28:05.252Z,104.10
2017-11-09T23:30:32.827Z,100.47
2017-11-09T23:33:00.398Z,95.83
2017-11-09T23:35:28.030Z,111.57
2017-11-09T23:37:55.607Z,111.03
2017-11-09T23:40:23.217Z,101.20
2017-11-09T23:42:50.782Z,90.03
2017-11-09T23:45:24.686Z,101.83
2017-11-09T23:47:52.253Z,103.53
2017-11-09T23:50:19.838Z,107.17
2017-11-09T23:52:48.317Z,92.50
2017-11-09T23:55:15.888Z,114.03
2017-11-09T23:57:43.455Z,98.70
